Airfield :
LOGIN :

Register | Disclaimer

   EN    FR    IT 

 










Legend :    VFR   Marginal VFR   IFR   Intensive IFR   Very Intensive IFR
Visi :
Ceiling :
>= 8 km
>= 3000ft
5 to 8 km
1000 to 3000 ft
1500m to 5 km
500 to 1000 ft
800 to 1500m
200 to 500 ft
< 800m
< 200 ft
Symbols :   Thunderstorms  Fog  Heavy snow  Heavy precipitations  Wind > 20 kt
SIGMETs :     Misc.  Thunderstorms  Icing  Turbulence  Mountain Waves  Volcanic Ashes






- Airport Elevation : 12 ft
- IATA code : NCE


LFMN - Nice

CURRENT METAR :
  • 031030Z AUTO 19009KT CAVOK 22/18 Q1010 TEMPO FEW060CB

EXPIRED METARs :
  • 031000Z AUTO 20011KT CAVOK 21/17 Q1010 TEMPO FEW060CB
  • 030930Z AUTO 19011KT 9999 FEW027 21/17 Q1010 TEMPO FEW060CB
  • 030900Z AUTO 18008KT 9999 FEW033 22/17 Q1010 NOSIG
  • 030830Z AUTO 16003KT 9999 FEW030 22/16 Q1010 NOSIG
  • 030800Z AUTO 18004KT CAVOK 21/15 Q1010 NOSIG
  • 030730Z AUTO 22005KT 180V270 CAVOK 21/15 Q1010 NOSIG

TAF TAF LFMN
Valid from the 03 at 09:00 until the 04 at 15:00 UTC


030800Z 0309/0415 18003KT CAVOK
TEMPO 0309/0311 SCT020
BECMG 0309/0311 20010KT
TEMPO 0311/0318 FEW060CB
BECMG 0320/0323 VRB04KT
TEMPO 0405/0415 4000 SHRA BKN014 BKN030TCU
PROB40
TEMPO 0407/0415 2000 TSRA BKN010 BKN020CB
ATIS : +33 4 93 17 21 16



MET'MAP, your aeronautical weather chart ! - Copyright ORBIFLY December 2007 - Disclaimer

ORBIFLY MET'MAP TEAM :

Programming & Development : Alexandra Zaïnal
Concept & original design : Baudouin d'Aumeries
Assistance for programming : Marc-Olivier Méhu
Technical & hardware support : Manuel Goepfert

Contact : metmap@orbifly.com




SOURCES & CREDITS :

   NOAA